Time;durP1;ratioP1;P1;durP2;ratioP2;P2;SDS_P1;SDS_P2;PMS_P1;PMS_P2;Temp;Humidity;BMP_temperature;BMP_pressure;BME280_temperature;BME280_humidity;BME280_pressure;Samples;Min_cycle;Max_cycle;Signal;HPM_P1;HPM_P2
2023/05/02 00:01:15;;;;;;;1.15;0.70;;;;;;;11.70;72.08;99619.84;5094228;28;20040;-69
2023/05/02 00:03:44;;;;;;;0.75;0.75;;;;;;;11.72;72.19;99619.81;5094122;28;20036;-69
2023/05/02 00:06:14;;;;;;;0.60;0.60;;;;;;;11.64;72.11;99612.16;5094177;28;20051;-69
2023/05/02 00:08:43;;;;;;;0.60;0.60;;;;;;;11.69;72.07;99620.69;5094207;28;20097;-69
2023/05/02 00:11:13;;;;;;;2.70;1.20;;;;;;;11.45;72.13;99590.13;5093839;28;20071;-69
2023/05/02 00:13:42;;;;;;;0.60;0.60;;;;;;;11.60;72.15;99625.84;5093942;28;20048;-69
2023/05/02 00:16:11;;;;;;;0.80;0.80;;;;;;;11.60;72.44;99609.63;5094041;28;20047;-69
2023/05/02 00:18:40;;;;;;;0.35;0.35;;;;;;;11.65;72.30;99618.13;5094474;28;20044;-69
2023/05/02 00:21:10;;;;;;;0.40;0.40;;;;;;;11.58;72.03;99617.31;5093913;28;20040;-69
2023/05/02 00:23:40;;;;;;;0.57;0.57;;;;;;;11.58;72.48;99617.31;5093859;28;20085;-69
2023/05/02 00:26:09;;;;;;;0.63;0.63;;;;;;;11.60;72.36;99615.59;5093662;28;20047;-69
2023/05/02 00:28:42;;;;;;;0.55;0.55;;;;;;;11.61;72.15;99612.22;5093560;28;20474;-69
2023/05/02 00:31:11;;;;;;;0.40;0.40;;;;;;;11.66;71.70;99619.84;5092986;28;20043;-69
2023/05/02 00:33:40;;;;;;;0.70;0.70;;;;;;;11.62;71.31;99619.00;5093798;28;20067;-69
2023/05/02 00:36:14;;;;;;;1.87;1.20;;;;;;;11.61;71.68;99621.56;5092779;28;20035;-69
2023/05/02 00:38:45;;;;;;;0.30;0.30;;;;;;;11.60;71.50;99619.88;5093735;28;20040;-69
2023/05/02 00:41:13;;;;;;;1.02;0.93;;;;;;;11.55;71.67;99616.47;5092856;28;20047;-68
2023/05/02 00:43:42;;;;;;;0.77;0.77;;;;;;;11.56;71.25;99621.59;5092485;28;20043;-67
2023/05/02 00:46:12;;;;;;;2.35;1.65;;;;;;;11.55;71.14;99621.59;5092983;28;20051;-68
2023/05/02 00:48:41;;;;;;;1.20;0.50;;;;;;;11.47;71.00;99608.84;5093744;28;20539;-68
2023/05/02 00:51:11;;;;;;;0.20;0.20;;;;;;;11.50;70.62;99619.06;5093555;28;20040;-68
2023/05/02 00:53:40;;;;;;;0.65;0.60;;;;;;;11.47;71.18;99615.69;5092422;28;20541;-68
2023/05/02 00:56:10;;;;;;;0.30;0.30;;;;;;;11.52;70.86;99622.47;5092347;28;20055;-68
2023/05/02 00:58:40;;;;;;;0.75;0.75;;;;;;;11.48;70.83;99631.00;5093770;28;20063;-69
2023/05/02 01:01:25;;;;;;;0.60;0.60;;;;;;;11.43;70.80;99622.50;5093603;28;20104;-69
2023/05/02 01:04:08;;;;;;;0.40;0.40;;;;;;;11.38;70.80;99611.47;5092698;28;20075;-69
2023/05/02 01:06:53;;;;;;;0.50;0.50;;;;;;;11.38;70.58;99626.78;5093477;28;20135;-69
2023/05/02 01:09:33;;;;;;;0.32;0.32;;;;;;;11.39;70.69;99625.94;5093530;28;20052;-69
2023/05/02 01:12:07;;;;;;;;;;;;;;;11.34;70.61;99627.69;5093745;28;20095;-69
2023/05/02 01:14:42;;;;;;;0.40;0.40;;;;;;;11.34;70.43;99622.56;5093769;28;19920;-69
2023/05/02 01:17:15;;;;;;;0.60;0.60;;;;;;;11.33;70.69;99625.97;5093575;28;20413;-69
2023/05/02 01:19:50;;;;;;;0.60;0.60;;;;;;;11.34;70.18;99622.56;5093318;28;20085;-69
2023/05/02 01:22:22;;;;;;;0.70;0.70;;;;;;;11.28;70.28;99618.31;5093351;28;20517;-68
2023/05/02 01:25:00;;;;;;;0.70;0.70;;;;;;;11.28;70.67;99627.69;5092412;28;20071;-69
2023/05/02 01:27:48;;;;;;;1.00;0.90;;;;;;;11.26;70.64;99637.06;5093151;28;20048;-69
2023/05/02 01:30:21;;;;;;;0.70;0.70;;;;;;;11.23;70.32;99629.41;5093238;28;20048;-69
2023/05/02 01:32:52;;;;;;;0.57;0.57;;;;;;;11.14;70.64;99624.34;5093289;28;20048;-68
2023/05/02 01:35:24;;;;;;;0.88;0.88;;;;;;;11.16;70.93;99623.50;5092357;28;20126;-69
2023/05/02 01:37:56;;;;;;;1.60;1.50;;;;;;;11.15;71.05;99626.06;5093168;28;20048;-69
2023/05/02 01:40:26;;;;;;;0.60;0.60;;;;;;;11.14;70.61;99629.44;5097055;28;20441;-69
2023/05/02 01:42:57;;;;;;;0.68;0.68;;;;;;;11.13;70.91;99627.78;5095811;28;20067;-68
2023/05/02 01:45:29;;;;;;;0.57;0.57;;;;;;;11.14;70.78;99619.25;5095983;28;20067;-68
2023/05/02 01:48:00;;;;;;;0.50;0.50;;;;;;;11.07;70.55;99618.41;5097040;28;20482;-68
2023/05/02 01:50:31;;;;;;;0.40;0.40;;;;;;;11.10;71.10;99613.31;5096746;28;20504;-68
2023/05/02 01:53:03;;;;;;;0.30;0.30;;;;;;;11.07;70.35;99622.66;5095500;28;20036;-68
2023/05/02 01:55:36;;;;;;;0.60;0.60;;;;;;;10.96;70.87;99619.31;5095526;28;20116;-68
2023/05/02 01:58:07;;;;;;;0.45;0.45;;;;;;;11.01;70.99;99622.72;5096991;28;20542;-68
2023/05/02 02:00:40;;;;;;;1.05;0.95;;;;;;;10.98;71.09;99627.81;5096546;28;20078;-68
2023/05/02 02:03:11;;;;;;;0.30;0.30;;;;;;;10.90;71.19;99619.31;5096837;28;20567;-68
2023/05/02 02:05:41;;;;;;;0.40;0.40;;;;;;;10.89;71.09;99620.19;5096606;28;20044;-68
2023/05/02 02:08:10;;;;;;;0.40;0.40;;;;;;;10.94;71.39;99623.59;5095349;28;20036;-68
2023/05/02 02:10:43;;;;;;;0.43;0.43;;;;;;;10.96;71.43;99619.31;5095013;28;20079;-68
2023/05/02 02:13:18;;;;;;;0.98;0.93;;;;;;;10.98;71.55;99617.59;5095257;28;20044;-68
2023/05/02 02:15:51;;;;;;;0.30;0.30;;;;;;;10.95;71.56;99618.47;5096288;28;20093;-68
2023/05/02 02:18:24;;;;;;;0.82;0.82;;;;;;;10.89;71.29;99613.41;5095141;28;20526;-68
2023/05/02 02:20:54;;;;;;;1.05;0.85;;;;;;;10.94;71.44;99615.94;5095240;28;20040;-68
2023/05/02 02:23:27;;;;;;;1.85;1.45;;;;;;;10.95;71.68;99613.34;5096461;28;20040;-67
2023/05/02 02:25:57;;;;;;;0.55;0.55;;;;;;;10.85;71.95;99619.34;5095246;28;20051;-68
2023/05/02 02:28:26;;;;;;;1.33;1.23;;;;;;;10.81;72.43;99619.34;5096020;28;20051;-68
2023/05/02 02:30:57;;;;;;;1.02;1.00;;;;;;;10.70;71.91;99621.97;5094759;28;20042;-67
2023/05/02 02:33:31;;;;;;;0.35;0.35;;;;;;;10.63;72.75;99616.00;5096605;28;20397;-68
2023/05/02 02:36:15;;;;;;;0.63;0.63;;;;;;;10.61;72.49;99611.75;5095047;28;20533;-67
2023/05/02 02:38:51;;;;;;;0.22;0.22;;;;;;;10.67;72.71;99617.72;5094737;28;20066;-68
2023/05/02 02:41:27;;;;;;;0.60;0.60;;;;;;;10.56;72.89;99619.41;5095741;28;20036;-67
2023/05/02 02:44:04;;;;;;;0.60;0.60;;;;;;;10.48;72.91;99621.16;5094926;28;20077;-67
2023/05/02 02:46:56;;;;;;;0.40;0.40;;;;;;;10.38;73.36;99624.56;5094896;28;20040;-68
2023/05/02 02:49:35;;;;;;;0.52;0.47;;;;;;;10.38;73.09;99629.66;5096035;28;20095;-68
2023/05/02 02:52:11;;;;;;;0.30;0.30;;;;;;;10.45;73.35;99631.34;5095393;28;20126;-68
2023/05/02 02:54:46;;;;;;;0.25;0.25;;;;;;;10.48;73.90;99631.34;5096170;28;20425;-68
2023/05/02 02:57:18;;;;;;;0.45;0.45;;;;;;;10.46;73.43;99638.13;5094385;28;20521;-68
2023/05/02 02:59:58;;;;;;;0.57;0.57;;;;;;;10.46;73.38;99627.09;5094322;28;20508;-68
2023/05/02 03:02:32;;;;;;;0.40;0.40;;;;;;;10.52;73.86;99627.06;5094505;28;20070;-68
2023/05/02 03:05:04;;;;;;;6.75;2.60;;;;;;;10.54;73.32;99625.38;5095401;28;20114;-68
2023/05/02 03:07:33;;;;;;;4.78;1.42;;;;;;;10.55;72.88;99627.94;5094148;28;20052;-68
2023/05/02 03:10:04;;;;;;;6.82;2.90;;;;;;;10.61;73.21;99627.06;5095548;28;20094;-68
2023/05/02 03:12:35;;;;;;;15.63;3.15;;;;;;;10.62;72.55;99634.72;5094976;28;20105;-67
2023/05/02 03:15:25;;;;;;;1.50;1.40;;;;;;;10.58;72.48;99630.47;5095272;28;20043;-68
2023/05/02 03:17:55;;;;;;;2.80;2.60;;;;;;;10.58;72.37;99633.00;5095341;28;20048;-67
2023/05/02 03:20:24;;;;;;;3.45;0.95;;;;;;;10.57;72.45;99636.44;5095339;28;20052;-67
2023/05/02 03:22:54;;;;;;;;;;;;;;;10.62;72.65;99639.84;5095355;28;20051;-68
2023/05/02 03:25:23;;;;;;;2.08;1.80;;;;;;;10.58;72.39;99633.00;5093715;28;19920;-68
2023/05/02 03:27:52;;;;;;;3.40;0.82;;;;;;;10.52;72.50;99633.03;5095198;28;20127;-68
2023/05/02 03:30:21;;;;;;;1.40;1.17;;;;;;;10.54;72.57;99631.31;5093946;28;20044;-68
2023/05/02 03:32:51;;;;;;;0.90;0.90;;;;;;;10.55;72.51;99637.28;5095098;28;20123;-68
2023/05/02 03:35:21;;;;;;;0.43;0.40;;;;;;;10.50;72.22;99637.28;5094571;28;20543;-68
2023/05/02 03:37:52;;;;;;;1.38;1.23;;;;;;;10.46;71.94;99643.22;5093551;28;20329;-68
2023/05/02 03:40:21;;;;;;;0.50;0.50;;;;;;;10.49;72.41;99643.25;5094729;28;20040;-68
2023/05/02 03:42:50;;;;;;;3.70;1.38;;;;;;;10.40;72.30;99637.28;5093362;28;20040;-67
2023/05/02 03:45:25;;;;;;;0.70;0.70;;;;;;;10.34;72.33;99645.78;5094800;28;20101;-68
2023/05/02 03:47:54;;;;;;;0.35;0.35;;;;;;;10.27;72.85;99643.28;5094479;28;20075;-68
2023/05/02 03:50:25;;;;;;;0.40;0.40;;;;;;;10.09;73.01;99628.78;5093197;28;20097;-67
2023/05/02 03:52:55;;;;;;;0.50;0.50;;;;;;;10.11;73.37;99644.91;5093562;28;20048;-68
2023/05/02 03:55:32;;;;;;;0.50;0.50;;;;;;;10.11;73.59;99655.13;5094562;28;20074;-68
2023/05/02 03:58:03;;;;;;;0.68;0.68;;;;;;;9.95;73.94;99648.31;5094330;28;20048;-67
2023/05/02 04:00:32;;;;;;;0.63;0.57;;;;;;;9.98;74.36;99654.25;5094808;28;20089;-67
2023/05/02 04:03:06;;;;;;;0.43;0.43;;;;;;;9.94;74.68;99654.25;5094449;28;20070;-68
2023/05/02 04:05:39;;;;;;;0.60;0.60;;;;;;;9.95;74.40;99643.22;5094499;28;20040;-68
2023/05/02 04:08:10;;;;;;;0.73;0.60;;;;;;;9.98;74.75;99653.44;5094510;28;20071;-68
2023/05/02 04:10:40;;;;;;;1.25;1.15;;;;;;;9.96;75.49;99650.00;5094308;28;20048;-67
2023/05/02 04:13:11;;;;;;;1.63;1.52;;;;;;;9.98;75.08;99656.81;5093965;28;20055;-68
2023/05/02 04:15:45;;;;;;;0.60;0.60;;;;;;;10.03;75.26;99657.66;5093977;28;20051;-68
2023/05/02 04:18:18;;;;;;;0.73;0.73;;;;;;;10.02;76.12;99655.13;5092890;28;20091;-67
2023/05/02 04:20:49;;;;;;;0.50;0.50;;;;;;;10.10;75.99;99654.25;5093154;28;20383;-67
2023/05/02 04:23:20;;;;;;;0.68;0.50;;;;;;;10.17;76.45;99657.72;5093960;28;20048;-67
2023/05/02 04:25:53;;;;;;;2.25;1.25;;;;;;;10.24;76.30;99656.88;5076139;28;20052;-67
2023/05/02 04:28:29;;;;;;;0.60;0.60;;;;;;;10.36;76.01;99661.97;5093420;28;20066;-68
2023/05/02 04:31:00;;;;;;;1.30;1.20;;;;;;;10.42;76.29;99661.09;5075781;28;20052;-68
2023/05/02 04:33:29;;;;;;;1.83;1.63;;;;;;;10.52;75.83;99667.91;5094382;28;20556;-67
2023/05/02 04:36:00;;;;;;;0.98;0.90;;;;;;;10.65;75.37;99680.63;5092700;28;20478;-68
2023/05/02 04:38:31;;;;;;;0.75;0.75;;;;;;;10.75;75.76;99672.13;5093680;28;20079;-67
2023/05/02 04:41:00;;;;;;;16.42;3.03;;;;;;;10.82;75.15;99667.88;5092842;28;20040;-68
2023/05/02 04:43:42;;;;;;;0.63;0.63;;;;;;;10.94;75.21;99667.00;5093794;28;20048;-68
2023/05/02 04:46:13;;;;;;;0.57;0.57;;;;;;;11.03;74.83;99666.97;5093661;28;20486;-69
2023/05/02 04:48:42;;;;;;;1.02;0.93;;;;;;;11.06;74.50;99662.69;5093505;28;20047;-70
2023/05/02 04:51:13;;;;;;;0.70;0.70;;;;;;;11.16;74.46;99671.16;5093742;28;20047;-70
2023/05/02 04:53:48;;;;;;;0.70;0.70;;;;;;;11.25;74.24;99673.72;5093642;28;20130;-70
2023/05/02 04:56:16;;;;;;;2.43;1.53;;;;;;;11.28;74.07;99668.56;5093808;28;20394;-70
2023/05/02 04:58:45;;;;;;;0.60;0.60;;;;;;;11.27;73.97;99682.22;5092290;28;20051;-70
2023/05/02 05:01:15;;;;;;;0.90;0.88;;;;;;;11.34;73.48;99674.53;5092370;28;20056;-70
2023/05/02 05:03:44;;;;;;;1.00;0.90;;;;;;;11.30;73.19;99672.00;5092250;28;20101;-70
2023/05/02 05:06:15;;;;;;;;;;;;;;;11.42;73.31;99671.94;5094164;28;20486;-70
2023/05/02 05:08:46;;;;;;;0.43;0.43;;;;;;;11.53;73.31;99672.72;5093709;28;20349;-70
2023/05/02 05:11:16;;;;;;;0.85;0.85;;;;;;;11.55;72.85;99673.56;5091961;28;20494;-70
2023/05/02 05:13:45;;;;;;;1.33;1.02;;;;;;;11.58;72.50;99683.78;5095521;28;20098;-70
2023/05/02 05:16:15;;;;;;;0.88;0.60;;;;;;;11.63;72.11;99676.09;5097721;28;20478;-70
2023/05/02 05:18:44;;;;;;;1.13;1.05;;;;;;;11.72;72.11;99682.03;5096093;28;20060;-69
2023/05/02 05:21:17;;;;;;;3.00;1.63;;;;;;;11.80;71.67;99676.88;5097431;28;20056;-70
2023/05/02 05:23:47;;;;;;;0.65;0.65;;;;;;;11.92;71.44;99680.22;5097296;28;20054;-69
2023/05/02 05:26:25;;;;;;;0.30;0.30;;;;;;;12.04;71.11;99680.13;5096387;28;20047;-69
2023/05/02 05:28:54;;;;;;;3.38;1.20;;;;;;;12.19;70.67;99683.47;5096018;28;20498;-69
2023/05/02 05:31:26;;;;;;;0.60;0.52;;;;;;;12.31;70.50;99691.03;5063177;28;20123;-69
2023/05/02 05:34:00;;;;;;;0.65;0.65;;;;;;;12.47;69.92;99687.50;5097109;28;20093;-68
2023/05/02 05:36:32;;;;;;;0.50;0.50;;;;;;;12.63;69.69;99692.47;5097381;28;20198;-68
2023/05/02 05:39:02;;;;;;;1.23;0.85;;;;;;;12.75;69.29;99686.38;5096943;28;20071;-68
2023/05/02 05:41:34;;;;;;;0.70;0.60;;;;;;;12.96;69.01;99691.28;5095693;28;20076;-69
2023/05/02 05:44:06;;;;;;;1.05;0.85;;;;;;;13.18;68.87;99689.38;5096910;28;20044;-69
2023/05/02 05:46:35;;;;;;;1.60;1.25;;;;;;;13.31;68.66;99691.81;5095713;28;20063;-69
2023/05/02 05:49:06;;;;;;;2.17;1.98;;;;;;;13.41;67.97;99695.94;5096841;28;20052;-69
2023/05/02 05:51:37;;;;;;;0.38;0.38;;;;;;;13.44;66.88;99690.78;5095506;28;20134;-69
2023/05/02 05:54:06;;;;;;;0.50;0.50;;;;;;;13.44;65.89;99692.47;5097316;28;20441;-69
2023/05/02 05:56:36;;;;;;;0.80;0.75;;;;;;;13.43;65.37;99699.34;5107159;28;20046;-69
2023/05/02 05:59:12;;;;;;;0.50;0.50;;;;;;;13.47;64.88;99694.16;5098690;28;20409;-69
2023/05/02 06:01:41;;;;;;;0.52;0.50;;;;;;;13.56;64.68;99696.59;5099000;28;20402;-68
2023/05/02 06:04:11;;;;;;;0.68;0.65;;;;;;;13.74;64.45;99693.81;5115671;28;20048;-68
2023/05/02 06:06:45;;;;;;;0.95;0.70;;;;;;;13.91;64.24;99697.00;5115645;28;20104;-68
2023/05/02 06:09:14;;;;;;;0.70;0.70;;;;;;;14.02;63.77;99700.25;5116821;28;20428;-69
2023/05/02 06:11:42;;;;;;;0.50;0.50;;;;;;;14.14;63.87;99700.09;5116429;28;20055;-69
2023/05/02 06:14:12;;;;;;;0.90;0.85;;;;;;;14.23;63.77;99712.78;5115393;28;20055;-69
2023/05/02 06:16:41;;;;;;;1.25;1.15;;;;;;;14.28;63.98;99707.56;5115662;28;20113;-69
2023/05/02 06:19:10;;;;;;;0.50;0.50;;;;;;;14.37;63.72;99708.31;5098570;28;20035;-69
2023/05/02 06:21:40;;;;;;;1.50;0.57;;;;;;;14.47;63.63;99714.16;5116602;28;20052;-68
2023/05/02 06:24:10;;;;;;;0.57;0.57;;;;;;;14.52;63.42;99718.34;5114918;28;20118;-68
2023/05/02 06:26:39;;;;;;;0.40;0.40;;;;;;;14.59;64.04;99719.09;5114341;28;20048;-68
2023/05/02 06:29:08;;;;;;;0.57;0.57;;;;;;;14.71;64.22;99713.75;5116473;28;20071;-68
2023/05/02 06:31:36;;;;;;;1.33;1.23;;;;;;;14.82;64.77;99721.28;5116568;28;20585;-69
2023/05/02 06:34:05;;;;;;;0.90;0.90;;;;;;;14.91;63.95;99723.69;5116727;27;20075;-69
2023/05/02 06:36:34;;;;;;;10.13;1.33;;;;;;;14.96;63.06;99722.75;5116035;28;20036;-69
2023/05/02 06:39:03;;;;;;;0.63;0.63;;;;;;;15.03;62.13;99728.63;5116552;28;20044;-69
2023/05/02 06:41:33;;;;;;;0.70;0.70;;;;;;;15.12;61.60;99736.16;5116467;28;20039;-69
2023/05/02 06:44:02;;;;;;;0.60;0.60;;;;;;;15.25;61.43;99732.50;5116450;28;20396;-69
2023/05/02 06:46:31;;;;;;;1.25;0.88;;;;;;;15.50;61.01;99728.59;5115998;28;20044;-69
2023/05/02 06:49:00;;;;;;;0.40;0.40;;;;;;;15.67;60.68;99730.84;5116176;28;20564;-69
2023/05/02 06:51:28;;;;;;;0.52;0.52;;;;;;;15.80;60.81;99733.13;5115798;28;20341;-69
2023/05/02 06:53:58;;;;;;;0.93;0.88;;;;;;;15.93;60.75;99741.44;5116555;28;20493;-69
2023/05/02 06:56:26;;;;;;;0.47;0.47;;;;;;;16.06;60.29;99737.72;5115965;28;20040;-70
2023/05/02 06:58:57;;;;;;;0.85;0.85;;;;;;;16.06;60.22;99741.13;5115775;28;20505;-70
2023/05/02 07:01:25;;;;;;;0.68;0.68;;;;;;;16.16;60.17;99735.78;5115791;28;20093;-69
2023/05/02 07:03:54;;;;;;;0.73;0.57;;;;;;;16.20;59.76;99732.25;5115871;28;20375;-69
2023/05/02 07:06:24;;;;;;;1.17;1.07;;;;;;;16.24;59.26;99739.03;5115709;28;20043;-70
2023/05/02 07:08:53;;;;;;;0.82;0.82;;;;;;;16.27;59.59;99733.81;5115569;28;20750;-69
2023/05/02 07:11:23;;;;;;;1.40;1.27;;;;;;;16.42;59.56;99743.75;5115199;28;20044;-69
2023/05/02 07:13:51;;;;;;;2.60;1.08;;;;;;;16.51;59.23;99744.41;5115450;28;20516;-69
2023/05/02 07:16:22;;;;;;;0.95;0.95;;;;;;;16.61;58.37;99739.88;5115415;28;20052;-69
2023/05/02 07:18:51;;;;;;;0.73;0.73;;;;;;;16.67;58.50;99740.63;5115838;28;20112;-70
2023/05/02 07:21:20;;;;;;;0.87;0.87;;;;;;;16.79;58.00;99738.59;5115658;28;20044;-69
2023/05/02 07:23:48;;;;;;;1.15;1.02;;;;;;;16.94;57.72;99748.53;5115285;28;20415;-69
2023/05/02 07:26:18;;;;;;;0.50;0.50;;;;;;;17.06;57.49;99748.22;5115217;28;20043;-69
2023/05/02 07:28:48;;;;;;;0.60;0.60;;;;;;;17.19;56.82;99750.44;5115439;28;20066;-69
2023/05/02 07:31:16;;;;;;;0.35;0.35;;;;;;;17.26;57.24;99754.53;5115336;28;20074;-69
2023/05/02 07:33:48;;;;;;;1.13;0.63;;;;;;;17.42;57.41;99752.38;5115167;28;20126;-69
2023/05/02 07:36:17;;;;;;;0.50;0.50;;;;;;;17.49;57.13;99746.19;5114849;28;20419;-69
2023/05/02 07:38:46;;;;;;;0.50;0.50;;;;;;;17.56;56.95;99749.47;5115086;28;20078;-69
2023/05/02 07:41:15;;;;;;;0.68;0.68;;;;;;;17.72;57.16;99750.72;5115258;28;20074;-69
2023/05/02 07:43:44;;;;;;;0.53;0.53;;;;;;;17.87;56.16;99758.03;5114909;28;20044;-70
2023/05/02 07:46:13;;;;;;;0.70;0.70;;;;;;;17.88;54.34;99757.13;5115210;28;20039;-69
2023/05/02 07:48:42;;;;;;;1.00;0.70;;;;;;;17.94;54.09;99756.97;5115101;28;20563;-69
2023/05/02 07:51:13;;;;;;;0.40;0.40;;;;;;;18.04;53.74;99755.81;5114500;28;20300;-69
2023/05/02 07:53:42;;;;;;;0.77;0.77;;;;;;;18.15;52.48;99751.16;5114815;28;20401;-69
2023/05/02 07:56:11;;;;;;;0.65;0.60;;;;;;;18.27;51.63;99755.09;5114735;28;20079;-69
2023/05/02 07:58:40;;;;;;;1.00;0.85;;;;;;;18.31;51.13;99752.38;5114590;28;20042;-69
2023/05/02 08:01:09;;;;;;;3.33;0.70;;;;;;;18.32;50.48;99743.75;5113481;28;20506;-69
2023/05/02 08:03:38;;;;;;;0.57;0.57;;;;;;;18.38;50.57;99759.03;5114846;28;20038;-69
2023/05/02 08:06:08;;;;;;;3.42;0.93;;;;;;;18.39;50.91;99760.75;5114412;28;20280;-69
2023/05/02 08:08:39;;;;;;;0.40;0.40;;;;;;;18.35;50.42;99756.56;5114832;28;20043;-69
2023/05/02 08:11:07;;;;;;;1.73;1.42;;;;;;;18.41;49.97;99758.94;5114161;28;20123;-69
2023/05/02 08:13:36;;;;;;;0.53;0.53;;;;;;;18.65;49.80;99758.22;5114809;28;20081;-69
2023/05/02 08:16:05;;;;;;;0.50;0.50;;;;;;;18.96;50.76;99760.63;5114383;28;20039;-69
2023/05/02 08:18:35;;;;;;;0.50;0.50;;;;;;;19.34;51.65;99759.31;5114659;28;20104;-68
2023/05/02 08:21:05;;;;;;;0.47;0.47;;;;;;;19.48;51.30;99762.31;5114253;28;20088;-69
2023/05/02 08:23:34;;;;;;;0.75;0.75;;;;;;;19.49;49.94;99764.00;5114286;28;20039;-69
2023/05/02 08:26:04;;;;;;;2.00;1.10;;;;;;;19.53;49.62;99762.16;5114741;28;20439;-69
2023/05/02 08:28:36;;;;;;;0.40;0.40;;;;;;;19.67;49.76;99765.09;5114294;28;20064;-69
2023/05/02 08:31:05;;;;;;;0.73;0.73;;;;;;;19.76;49.14;99762.16;5114353;28;20088;-68
2023/05/02 08:33:34;;;;;;;0.75;0.68;;;;;;;19.74;49.70;99762.22;5113176;28;20290;-68
2023/05/02 08:36:11;;;;;;;0.95;0.52;;;;;;;19.71;49.21;99764.91;5114353;28;20036;-69
2023/05/02 08:38:40;;;;;;;1.40;1.05;;;;;;;19.74;48.88;99766.56;5114362;28;20035;-69
2023/05/02 08:41:15;;;;;;;1.33;1.23;;;;;;;19.66;48.31;99761.66;5114293;28;20052;-69
2023/05/02 08:43:44;;;;;;;0.60;0.60;;;;;;;19.85;49.29;99759.22;5114025;28;20283;-68
2023/05/02 08:46:15;;;;;;;0.60;0.60;;;;;;;20.02;49.25;99762.03;5114293;28;20409;-69
2023/05/02 08:48:46;;;;;;;1.90;1.40;;;;;;;20.14;49.01;99763.31;5113051;28;20497;-68
2023/05/02 08:51:18;;;;;;;0.75;0.70;;;;;;;20.24;48.80;99759.50;5113855;28;20043;-69
2023/05/02 08:53:52;;;;;;;0.82;0.80;;;;;;;20.37;47.91;99747.75;5114026;28;20040;-69
2023/05/02 08:56:24;;;;;;;0.50;0.50;;;;;;;20.48;48.14;99748.16;5114220;28;20047;-69
2023/05/02 08:58:53;;;;;;;0.57;0.57;;;;;;;20.67;49.14;99756.88;5113964;28;20074;-68
2023/05/02 09:01:24;;;;;;;0.77;0.70;;;;;;;20.86;49.44;99749.19;5113833;28;20044;-68
2023/05/02 09:03:54;;;;;;;0.57;0.52;;;;;;;20.77;48.23;99740.06;5113849;28;20044;-68
2023/05/02 09:06:24;;;;;;;0.82;0.77;;;;;;;20.59;47.40;99741.63;5113700;28;20532;-68
2023/05/02 09:08:53;;;;;;;1.17;1.05;;;;;;;20.64;47.08;99739.69;5113687;28;20048;-68
2023/05/02 09:11:24;;;;;;;0.50;0.50;;;;;;;20.66;46.79;99747.41;5113478;28;20048;-68
2023/05/02 09:13:53;;;;;;;2.05;1.20;;;;;;;20.53;46.30;99738.44;5113656;28;20056;-68
2023/05/02 09:16:24;;;;;;;0.55;0.55;;;;;;;20.63;46.43;99742.38;5113743;28;20506;-68
2023/05/02 09:18:55;;;;;;;0.85;0.70;;;;;;;20.83;46.53;99744.97;5113695;28;20048;-69
2023/05/02 09:21:26;;;;;;;2.45;1.00;;;;;;;20.92;46.60;99744.63;5113614;28;20163;-68
2023/05/02 09:23:57;;;;;;;0.50;0.50;;;;;;;21.02;46.66;99745.88;5113679;28;20155;-69
2023/05/02 09:26:31;;;;;;;0.77;0.77;;;;;;;21.03;46.70;99750.19;5113860;28;20521;-68
2023/05/02 09:29:01;;;;;;;0.55;0.55;;;;;;;20.99;46.81;99751.22;5113656;28;20100;-69
2023/05/02 09:31:33;;;;;;;0.70;0.70;;;;;;;21.00;47.00;99752.91;5113458;28;20092;-70
2023/05/02 09:34:10;;;;;;;0.70;0.70;;;;;;;21.26;48.10;99750.06;5113474;28;20093;-68
2023/05/02 09:36:40;;;;;;;2.35;1.20;;;;;;;21.33;47.51;99751.50;5113586;28;20044;-68
2023/05/02 09:39:12;;;;;;;0.73;0.73;;;;;;;21.26;46.97;99755.25;5113819;28;20044;-67
2023/05/02 09:41:44;;;;;;;0.57;0.57;;;;;;;21.33;47.15;99745.47;5113819;28;20578;-69
2023/05/02 09:44:15;;;;;;;0.50;0.50;;;;;;;21.21;46.54;99744.22;5113421;28;20055;-67
2023/05/02 09:46:46;;;;;;;1.42;1.33;;;;;;;21.24;46.78;99746.69;5113437;28;20058;-67
2023/05/02 09:49:17;;;;;;;0.50;0.50;;;;;;;21.17;46.44;99741.84;5113401;28;20056;-68
2023/05/02 09:51:47;;;;;;;0.90;0.90;;;;;;;21.24;46.46;99746.69;5113738;28;20042;-69
2023/05/02 09:54:37;;;;;;;0.40;0.40;;;;;;;21.41;46.53;99742.53;5113276;28;20055;-70
2023/05/02 09:57:07;;;;;;;;;;;;;;;21.59;47.30;99736.53;5113724;28;20048;-69
2023/05/02 09:59:36;;;;;;;0.40;0.40;;;;;;;21.78;46.50;99742.59;5114442;28;19920;-68
2023/05/02 10:02:09;;;;;;;0.60;0.60;;;;;;;22.00;46.74;99743.34;5116844;28;20048;-69
2023/05/02 10:04:39;;;;;;;0.50;0.50;;;;;;;22.27;46.75;99744.63;5117029;28;20454;-70
2023/05/02 10:07:10;;;;;;;0.63;0.63;;;;;;;22.50;46.26;99749.59;5116781;28;20101;-68
2023/05/02 10:09:44;;;;;;;1.45;1.17;;;;;;;22.24;44.87;99736.13;5116903;28;20044;-67
2023/05/02 10:12:16;;;;;;;0.60;0.60;;;;;;;22.19;44.82;99738.97;5116470;28;20052;-71
2023/05/02 10:14:55;;;;;;;1.55;1.30;;;;;;;22.29;44.84;99732.38;5117076;28;20102;-69
2023/05/02 10:17:30;;;;;;;0.50;0.50;;;;;;;22.33;44.67;99733.94;5116696;28;20051;-69
2023/05/02 10:20:04;;;;;;;0.50;0.50;;;;;;;22.44;45.12;99729.06;5116966;28;20040;-66
2023/05/02 10:22:34;;;;;;;0.63;0.55;;;;;;;22.53;44.85;99726.00;5116737;28;20444;-68
2023/05/02 10:25:05;;;;;;;0.55;0.55;;;;;;;22.32;44.25;99721.84;5116832;28;20051;-68
2023/05/02 10:27:36;;;;;;;0.98;0.88;;;;;;;22.22;44.52;99727.56;5116566;28;20051;-68
2023/05/02 10:30:07;;;;;;;0.80;0.80;;;;;;;22.14;44.22;99716.69;5116438;28;20546;-65
2023/05/02 10:32:38;;;;;;;0.73;0.70;;;;;;;22.33;44.44;99720.94;5116354;28;20039;-65
2023/05/02 10:35:08;;;;;;;0.55;0.55;;;;;;;22.58;45.13;99721.41;5115653;28;20516;-66
2023/05/02 10:37:41;;;;;;;0.60;0.60;;;;;;;22.94;45.79;99728.38;5116180;28;20493;-66
2023/05/02 10:40:11;;;;;;;1.05;0.65;;;;;;;22.88;44.55;99726.06;5116311;28;20048;-67
2023/05/02 10:42:45;;;;;;;0.93;0.85;;;;;;;23.12;45.09;99727.44;5116119;28;20044;-67
2023/05/02 10:45:31;;;;;;;0.63;0.63;;;;;;;23.09;44.41;99717.16;5116541;28;20522;-66
2023/05/02 10:48:14;;;;;;;0.80;0.80;;;;;;;23.20;44.05;99723.50;5116105;28;20055;-66
2023/05/02 10:50:46;;;;;;;9.50;1.98;;;;;;;23.27;43.90;99722.25;5116319;27;20047;-67
2023/05/02 10:53:27;;;;;;;0.65;0.63;;;;;;;23.24;43.57;99721.59;5116085;28;20448;-67
2023/05/02 10:56:11;;;;;;;0.50;0.50;;;;;;;23.19;43.72;99710.56;5115892;28;20055;-66
2023/05/02 10:58:42;;;;;;;0.77;0.77;;;;;;;22.98;43.77;99711.66;5116259;28;20047;-66
2023/05/02 11:01:33;;;;;;;0.55;0.55;;;;;;;23.03;44.29;99717.47;5115850;28;20096;-69
2023/05/02 11:04:03;;;;;;;2.38;1.75;;;;;;;23.20;44.73;99709.66;5114438;28;20085;-66
2023/05/02 11:06:34;;;;;;;0.50;0.50;;;;;;;23.36;44.68;99710.56;5115731;28;20043;-66
2023/05/02 11:09:25;;;;;;;0.63;0.63;;;;;;;23.15;44.27;99714.25;5114645;28;20040;-66
2023/05/02 11:11:56;;;;;;;0.65;0.60;;;;;;;22.78;43.93;99709.22;5114908;28;20055;-66
2023/05/02 11:14:55;;;;;;;1.80;0.70;;;;;;;22.70;43.68;99706.16;5115628;28;20055;-66
2023/05/02 11:17:25;;;;;;;;;;;;;;;22.64;44.01;99705.56;5110070;28;20405;-66
2023/05/02 11:20:19;;;;;;;0.50;0.50;;;;;;;22.77;44.17;99710.16;5115524;28;19920;-68
2023/05/02 11:22:49;;;;;;;0.77;0.77;;;;;;;22.97;44.56;99709.97;5110019;28;20443;-69
2023/05/02 11:25:30;;;;;;;1.17;0.98;;;;;;;23.15;44.91;99717.72;5115546;28;20096;-68
2023/05/02 11:28:00;;;;;;;0.85;0.82;;;;;;;23.28;45.04;99720.50;5115342;28;20493;-67
2023/05/02 11:30:47;;;;;;;;;;;;;;;23.41;44.82;99716.38;5115911;28;20453;-68
2023/05/02 11:33:18;;;;;;;0.35;0.35;;;;;;;23.56;45.14;99712.13;5115400;28;19924;-68
2023/05/02 11:35:48;;;;;;;0.75;0.75;;;;;;;23.90;45.97;99717.19;5115112;28;20039;-65
2023/05/02 11:38:21;;;;;;;1.48;1.00;;;;;;;24.08;45.00;99708.41;5114967;28;20043;-67
2023/05/02 11:40:56;;;;;;;0.50;0.50;;;;;;;23.92;44.07;99710.97;5115173;28;20093;-67
2023/05/02 11:43:27;;;;;;;0.68;0.68;;;;;;;23.94;43.93;99693.50;5115058;28;20043;-66
2023/05/02 11:46:01;;;;;;;0.47;0.47;;;;;;;23.83;43.61;99705.41;5114994;28;20047;-64
2023/05/02 11:48:32;;;;;;;1.60;0.75;;;;;;;23.88;45.10;99704.25;5114827;28;20047;-69
2023/05/02 11:51:05;;;;;;;0.63;0.60;;;;;;;24.18;44.89;99706.13;5114960;28;20071;-66
2023/05/02 11:53:41;;;;;;;0.82;0.75;;;;;;;24.44;45.14;99708.94;5114990;28;20082;-66
2023/05/02 11:56:11;;;;;;;0.60;0.60;;;;;;;24.46;44.05;99701.88;5114620;28;20051;-69